Huvudsida
METAR-TAF:

METAR-TAF

Flygplatser :

Utti Airport

Uttis, Finland

latitud: 60-54N, longitud: 026-56E, höjd: 100 m

Aktuellt väderrapport

Denna rapport gjordes för 7 minuter sedan, klockan 08:20 UTC
Vind 17 kt från syd/sydväst i byarna ända upp till 29 kt, varierande mellan syd/sydost och sydväst
Temperatur 3°C
Fuktighet 100%
Tryck 995 hPa
Sikt: 2600 m
Mulet på en höjd av 400 ft
lätt duggregn

METAR: EFUT 220820Z AUTO 20017G29KT 160V230 2600 -DZ OVC004 03/03 Q0995

Tid: 10:27 (08:27 UTC)

Väderprognos

Denna rapport gjordes för 23 timmar och 53 minuter sedan, klockan 08:34 UTC
Prognos gäller från 21 kl. 09 UTC till 21 kl. 13 UTC
Vind 14 kt från syd
Sikt 10 km eller mer
Brutna moln på en höjd av 1400 ft
Temporärt
från 21 kl. 09 UTC till 21 kl. 13 UTC
Vind 16 kt från syd i byarna ända upp till 26 kt
Sikt: 3000 m
Brutna moln på en höjd av 900 ft
lätt snö, regn

TAF: EFUT 210834Z 2109/2113 18014KT 9999 BKN014 TEMPO 2109/2113 18016G26KT 3000 -SNRA BKN009

Aktuella väderrapporter och prognoser från 4000 flygplatser (METAR- och TAF-rapporter).

De tillgängliga stationerna syns som gula och röda prickar på kartan.

För musen över prickarna för att se namnen på stationerna.

Klicka sedan för att få väderrapporter och prognoser.

För att ändra kartan: Klicka på de gröna knapparna med ett svart kors på för att zooma in; den gröna knappen med ett streck på för att zooma ut; eller på de gröna pilarna för angränsande kartor.


METAR-TAF: